map of SQL home
SQL - Airport
Location
City:  San Carlos, California, United States
ICAO:KSQL
IATA:SQL
FAA LID:SQL

Details
Type:Airport (Airfield)
Use:Public/Civil
Latitude:3730'43"N (37.511855)
Longitude:12214'58"W (-122.249523)
Datum:WGS 1984
Elevation:5 ft (2 m)
Variation:13.42E (WMM2015 magnetic declination)
-0.10 annual change
Runways:1
Longest:2600 × 75 ft (792 × 23 m), paved

Time
Time Zone:UTC-8 (DST-7)
Local Time:

Weather
METAR:KSQL 142347Z 31003KT 10SM FEW200 20/01 A3008

Related Locations
Nearby:
Farthest:FTU: 11366 mi / 18292 km
Tolagnaro [Maurillac Airport (Fort Dauphin Airport)], MG

Find:

   beyond  
but within

Other Information
Maps:
NOTAMs:
Links:
Sources:

  
flag of United States
flag of California
  

Airport Diagram

Airport diagram for SQL

Airport diagram PDF

Sectional Chart

Flight Planning
at skyvector.com

Satellite Image

Google Maps Satellite view

 

Copyright © 2004-2017 Karl L. Swartz. All rights reserved.
The Great Circle Mapper name and logo are trademarks of the Great Circle Mapper.
All other trademarks mentioned herein belong to their respective owners.
Please see credits for attibutions and further copyright information.

  Follow gcmap on Facebook Follow gcmap on Twitter Follow gcmap on Google+ GCmap on LinkedIn

hCard Microformat

Geo Microformat